Alpena, MI

3:54 AM EDT on August 03, 2015 (GMT -0400)
APRSWXNET | | Change Station
CLOSE
Current Station
Personal Weather Station
Location: Alpena, MI
Elevation: 593 ft
Nearby Weather Stations

Elev 593 ft 45.05 °N, 83.45 °W | Updated 18 minutes ago

Overcast
Overcast
61 °F
Feels Like 61 °F
N
2
Wind Variable Wind from WNW
Gusts 8.0 mph

Today
High -- | Low -- °F
--% Chance of Precip.
Yesterday
High -- | Low -- °F
Precip. -- in
6:21 AM 8:58 PM
Waning Gibbous, 88% visible
Pressure 29.62 in
Visibility 10.0 miles
Clouds Mostly Cloudy 600 ft
Overcast 1300 ft
Dew Point 60 °F
Humidity 96%
Rainfall in
Snow Depth Not available.
UV 0 out of 12
Pollen 3.70 out of 12
Air Quality Not available.
Flu Activity Not available.
METAR KAPN 030654Z AUTO 28004KT 10SM BKN006 OVC013 17/16 A2963 RMK AO2 CIG 005V009 SLP031 T01670156

More Conditions Fewer Conditions

Pressure 29.62 in
Visibility 10.0 miles
Clouds Mostly Cloudy 600 ft
Overcast 1300 ft
Dew Point 60 °F
Humidity 96%
Rainfall in
Snow Depth Not available.
UV 0 out of 12
Pollen 3.70 out of 12
Air Quality Not available.
Flu Activity Not available.
METAR KAPN 030654Z AUTO 28004KT 10SM BKN006 OVC013 17/16 A2963 RMK AO2 CIG 005V009 SLP031 T01670156

More Conditions Fewer Conditions

Nowcast | as of 2:00 am EDT on August 3, 2015

At 3 am...cloudy. Temperature 62. West winds 6 mph. At 5 am...mostly cloudy. Temperature 60. West winds 6 mph. At 7 am...partly cloudy. Chance of showers and isolated thunderstorms. Temperature 59. West winds 7 mph. At 9 am...partly cloudy. Chance of showers and isolated thunderstorms. Temperature 64. West winds 7 mph.

×

10-Day Weather Forecast

×

Almanac

Astronomy

Aug. 03, 2015 Rise Set
Actual Time
Civil Twilight
Nautical Twilight
Astronomical Twilight
Moon
Length of Visible Light
Length of Day
Tomorrow will be .
, % of the Moon is Illuminated

Today's Extremes

State Highs State Lows

Community

WunderPhotos

Upload Photos

1,843,595 photos uploaded!

WunderBlogs® & News

Nearby

Air Quality

  Air Quality AQ Index Pollutant
Not available.

Snow Depth

Station Depth Elevation

Earthquake Activity

City Distance Mag. Time & Date
Minimum magnitude displayed is 2.5.

Coastal Water Temperatures

Place Temperature

Stations

Nearby Weather Stations

Station Location Temp. Windchill Dew Point Humidity Wind Precip. Elev Updated Type